| time (UTC) | temp F | wind direction | speed knots | gust knots | rain 1hr in | rain 24hr in | rain mn in | humidity % | barometer mb |
| 20260906130054 | 73 | 20 | 0.0 | 2.6 | 0.00 | 0.51 | 0.00 | 95 | 1013.5 |
| 20260906124554 | 72 | 0 | 0.0 | 4.3 | 0.00 | 0.51 | 0.00 | 95 | 1013.4 |
| 20260906123051 | 72 | 32 | 0.0 | 3.5 | 0.00 | 0.51 | 0.00 | 95 | 1013.3 |
| 20260906121549 | 71 | 351 | 0.9 | 4.3 | 0.00 | 0.51 | 0.00 | 96 | 1013.0 |
| 20260906120058 | 71 | 0 | 0.9 | 3.5 | 0.00 | 0.51 | 0.00 | 96 | 1013.0 |
| 20260906114556 | 70 | 28 | 0.0 | 2.6 | 0.00 | 0.51 | 0.00 | 96 | 1012.9 |
| 20260906113100 | 70 | 0 | 0.0 | 3.5 | 0.00 | 0.51 | 0.00 | 96 | 1012.9 |
| 20260906111557 | 69 | 0 | 0.0 | 0.0 | 0.00 | 0.51 | 0.00 | 95 | 1012.8 |
| 20260906110051 | 69 | 0 | 0.0 | 0.0 | 0.00 | 0.51 | 0.00 | 95 | 1012.9 |
| 20260906104603 | 69 | 0 | 0.0 | 0.0 | 0.00 | 0.51 | 0.00 | 95 | 1012.3 |
| 20260906103053 | 69 | 0 | 0.0 | 0.0 | 0.00 | 0.51 | 0.00 | 95 | 1012.2 |
| 20260906101550 | 69 | 0 | 0.0 | 0.0 | 0.00 | 0.51 | 0.00 | 95 | 1011.9 |
| 20260906100052 | 69 | 0 | 0.0 | 0.0 | 0.00 | 0.51 | 0.00 | 95 | 1011.7 |
| 20260906094639 | 69 | 0 | 0.0 | 0.0 | 0.00 | 0.51 | 0.00 | 95 | 1011.5 |
| 20260906093103 | 69 | 0 | 0.0 | 0.0 | 0.00 | 0.51 | 0.00 | 95 | 1011.5 |
| 20260906091555 | 69 | 0 | 0.0 | 0.0 | 0.00 | 0.51 | 0.00 | 95 | 1011.4 |
| 20260906090051 | 70 | 0 | 0.0 | 0.0 | 0.00 | 0.51 | 0.00 | 95 | 1011.2 |
| 20260906084547 | 70 | 0 | 0.0 | 0.0 | 0.00 | 0.51 | 0.00 | 95 | 1011.2 |
| 20260906083053 | 70 | 0 | 0.0 | 0.0 | 0.00 | 0.51 | 0.00 | 95 | 1011.2 |
| 20260906081554 | 70 | 0 | 0.0 | 0.0 | 0.00 | 0.51 | 0.00 | 95 | 1011.2 |
| 20260906080055 | 70 | 0 | 0.0 | 0.0 | 0.00 | 0.51 | 0.00 | 95 | 1011.1 |
| 20260906074554 | 70 | 0 | 0.0 | 0.0 | 0.00 | 0.51 | 0.00 | 95 | 1010.9 |
| 20260906073054 | 71 | 0 | 0.0 | 0.0 | 0.00 | 0.51 | 0.00 | 95 | 1010.8 |
| 20260906071556 | 71 | 0 | 0.0 | 0.0 | 0.00 | 0.51 | 0.00 | 95 | 1011.0 |
| 20260906070059 | 70 | 0 | 0.0 | 0.0 | 0.00 | 0.51 | 0.00 | 95 | 1011.1 |
| 20260906064552 | 71 | 0 | 0.0 | 0.0 | 0.00 | 0.51 | 0.00 | 94 | 1011.2 |
| 20260906063052 | 71 | 0 | 0.0 | 0.0 | 0.00 | 0.51 | 0.00 | 95 | 1011.2 |
| 20260906061554 | 71 | 0 | 0.0 | 0.0 | 0.00 | 0.51 | 0.00 | 95 | 1011.3 |
| 20260906060100 | 71 | 0 | 0.0 | 0.0 | 0.00 | 0.51 | 0.00 | 95 | 1011.3 |
| 20260906054557 | 71 | 0 | 0.0 | 0.0 | 0.00 | 0.51 | 0.00 | 95 | 1011.5 |
| 20260906053050 | 71 | 0 | 0.0 | 0.0 | 0.00 | 0.51 | 0.00 | 95 | 1011.7 |
| 20260906051555 | 71 | 0 | 0.0 | 0.0 | 0.00 | 0.51 | 0.00 | 94 | 1011.8 |
| 20260906050114 | 72 | 0 | 0.0 | 0.0 | 0.00 | 0.51 | 0.00 | 95 | 1011.9 |
| 20260906044554 | 71 | 0 | 0.0 | 0.0 | 0.00 | 0.51 | 0.00 | 94 | 1012.2 |
| 20260906043058 | 71 | 0 | 0.0 | 0.0 | 0.00 | 0.51 | 0.00 | 94 | 1012.2 |
| 20260906041553 | 72 | 0 | 0.0 | 0.0 | 0.00 | 0.51 | 0.00 | 94 | 1012.4 |
| 20260906040121 | 72 | 0 | 0.0 | 0.0 | 0.00 | 0.51 | 0.00 | 94 | 1012.4 |
| 20260906034601 | 72 | 0 | 0.0 | 0.0 | 0.00 | 0.51 | 0.51 | 94 | 1012.5 |
| 20260906033058 | 72 | 0 | 0.0 | 0.0 | 0.00 | 0.51 | 0.51 | 94 | 1012.5 |
| 20260906031555 | 72 | 0 | 0.0 | 0.0 | 0.00 | 0.51 | 0.51 | 94 | 1012.5 |
| 20260906030054 | 72 | 0 | 0.0 | 0.0 | 0.00 | 0.51 | 0.51 | 94 | 1012.5 |
| 20260906024602 | 73 | 0 | 0.0 | 0.0 | 0.00 | 0.51 | 0.51 | 94 | 1012.4 |
| 20260906023052 | 73 | 0 | 0.0 | 0.0 | 0.00 | 0.51 | 0.51 | 94 | 1012.4 |
| 20260906021603 | 73 | 0 | 0.0 | 1.7 | 0.00 | 0.51 | 0.51 | 94 | 1012.5 |
| 20260906020106 | 73 | 0 | 0.0 | 0.0 | 0.00 | 0.51 | 0.51 | 93 | 1012.2 |
| 20260906014558 | 73 | 0 | 0.0 | 0.9 | 0.00 | 0.51 | 0.51 | 93 | 1012.2 |
| 20260906013050 | 74 | 19 | 0.0 | 0.0 | 0.00 | 0.51 | 0.51 | 93 | 1012.1 |
| 20260906011557 | 74 | 0 | 0.0 | 0.0 | 0.00 | 0.51 | 0.51 | 93 | 1011.7 |
| 20260906010106 | 74 | 0 | 0.0 | 0.0 | 0.00 | 0.51 | 0.51 | 93 | 1011.7 |
| 20260906004600 | 74 | 0 | 0.0 | 0.0 | 0.00 | 0.51 | 0.51 | 93 | 1011.7 |
| 20260906003100 | 75 | 0 | 0.0 | 0.0 | 0.00 | 0.51 | 0.51 | 92 | 1011.5 |
| 20260906001606 | 75 | 0 | 0.0 | 0.0 | 0.00 | 0.51 | 0.51 | 91 | 1011.4 |
| 20260906000059 | 76 | 0 | 0.0 | 0.0 | 0.00 | 0.51 | 0.51 | 91 | 1011.1 |
| 20260905234559 | 77 | 0 | 0.0 | 0.0 | 0.00 | 0.51 | 0.51 | 90 | 1011.1 |
| 20260905233108 | 78 | 0 | 0.0 | 0.0 | 0.00 | 0.51 | 0.51 | 87 | 1011.0 |
| 20260905231554 | 79 | 0 | 0.0 | 0.9 | 0.00 | 0.51 | 0.51 | 85 | 1011.0 |
| 20260905230100 | 80 | 0 | 0.0 | 0.9 | 0.00 | 0.51 | 0.51 | 84 | 1011.2 |
| 20260905224601 | 80 | 0 | 0.0 | 0.9 | 0.00 | 0.51 | 0.51 | 84 | 1010.8 |
| 20260905223054 | 79 | 15 | 0.0 | 1.7 | 0.00 | 0.51 | 0.51 | 85 | 1010.8 |
| 20260905221551 | 78 | 0 | 0.0 | 0.9 | 0.00 | 0.51 | 0.51 | 88 | 1010.7 |
| 20260905220104 | 76 | 0 | 0.0 | 0.0 | 0.00 | 0.51 | 0.51 | 90 | 1010.7 |
| 20260905214556 | 75 | 0 | 0.0 | 1.7 | 0.00 | 0.51 | 0.51 | 90 | 1011.1 |
| 20260905213057 | 74 | 0 | 0.0 | 2.6 | 0.00 | 0.51 | 0.51 | 91 | 1011.5 |
| 20260905211555 | 74 | 0 | 0.0 | 0.9 | 0.00 | 0.51 | 0.51 | 92 | 1011.5 |
| 20260905210107 | 73 | 0 | 0.0 | 0.9 | 0.00 | 0.51 | 0.51 | 92 | 1011.6 |
| 20260905204550 | 73 | 23 | 0.0 | 0.9 | 0.00 | 0.51 | 0.51 | 93 | 1011.5 |
| 20260905203056 | 73 | 9 | 0.0 | 0.9 | 0.00 | 0.51 | 0.51 | 93 | 1011.1 |
| 20260905201604 | 73 | 0 | 0.0 | 1.7 | 0.00 | 0.51 | 0.51 | 93 | 1011.2 |
| 20260905200116 | 72 | 0 | 0.0 | 0.9 | 0.00 | 0.51 | 0.51 | 93 | 1012.0 |
| 20260905194546 | 71 | 345 | 0.0 | 0.0 | 0.20 | 0.51 | 0.51 | 92 | 1012.0 |
| 20260905193051 | 71 | 0 | 0.0 | 0.9 | 0.51 | 0.51 | 0.51 | 91 | 1011.6 |
| 20260905191552 | 71 | 334 | 0.0 | 2.6 | 0.51 | 0.51 | 0.51 | 90 | 1011.7 |
| 20260905190051 | 73 | 0 | 0.9 | 13.9 | 0.51 | 0.51 | 0.51 | 85 | 1011.5 |
| 20260905184609 | 78 | 15 | 2.6 | 17.4 | 0.31 | 0.31 | 0.31 | 77 | 1013.6 |
| 20260905183053 | 95 | 0 | 0.9 | 4.3 | 0.00 | 0.00 | 0.00 | 51 | 1011.5 |
| 20260905181607 | 98 | 0 | 0.0 | 7.0 | 0.00 | 0.00 | 0.00 | 46 | 1011.0 |
| 20260905180059 | 98 | 219 | 0.9 | 7.0 | 0.00 | 0.00 | 0.00 | 50 | 1011.6 |
| 20260905174600 | 97 | 94 | 0.0 | 1.7 | 0.00 | 0.00 | 0.00 | 49 | 1011.9 |
| 20260905173057 | 97 | 333 | 0.0 | 3.5 | 0.00 | 0.00 | 0.00 | 52 | 1012.2 |
| 20260905171604 | 98 | 0 | 0.0 | 1.7 | 0.00 | 0.00 | 0.00 | 51 | 1012.5 |
| 20260905170100 | 96 | 86 | 0.0 | 2.6 | 0.00 | 0.00 | 0.00 | 56 | 1012.8 |
| 20260905164555 | 95 | 212 | 0.9 | 7.0 | 0.00 | 0.00 | 0.00 | 54 | 1012.9 |
| 20260905163054 | 95 | 239 | 1.7 | 4.3 | 0.00 | 0.00 | 0.00 | 54 | 1013.2 |
| 20260905161550 | 94 | 159 | 1.7 | 5.2 | 0.00 | 0.00 | 0.00 | 55 | 1013.2 |
| 20260905160058 | 94 | 212 | 0.9 | 3.5 | 0.00 | 0.00 | 0.00 | 56 | 1013.3 |
| 20260905154557 | 92 | 203 | 0.9 | 3.5 | 0.00 | 0.00 | 0.00 | 60 | 1013.5 |
| 20260905153051 | 91 | 126 | 0.9 | 3.5 | 0.00 | 0.00 | 0.00 | 61 | 1013.5 |
| 20260905151602 | 90 | 188 | 1.7 | 3.5 | 0.00 | 0.00 | 0.00 | 66 | 1013.5 |
| 20260905150055 | 91 | 219 | 0.9 | 1.7 | 0.00 | 0.00 | 0.00 | 68 | 1013.6 |
| 20260905144555 | 89 | 140 | 0.0 | 1.7 | 0.00 | 0.00 | 0.00 | 70 | 1013.6 |
| 20260905143050 | 87 | 156 | 0.9 | 3.5 | 0.00 | 0.00 | 0.00 | 73 | 1013.6 |
| 20260905141550 | 86 | 244 | 0.0 | 1.7 | 0.00 | 0.00 | 0.00 | 72 | 1013.7 |
| 20260905140059 | 86 | 152 | 0.0 | 1.7 | 0.00 | 0.00 | 0.00 | 74 | 1013.7 |
| 20260905134557 | 86 | 0 | 0.0 | 0.9 | 0.00 | 0.00 | 0.00 | 74 | 1013.9 |
| 20260905133051 | 84 | 0 | 0.0 | 0.9 | 0.00 | 0.00 | 0.00 | 78 | 1013.9 |
| 20260905131556 | 82 | 0 | 0.0 | 0.9 | 0.00 | 0.00 | 0.00 | 85 | 1014.1 |